sensor_id;sensor_type;location;lat;lon;timestamp;temperature;humidity
17795;DHT22;9021;50.882;4.326;2022-12-07T00:01:14;7.80;99.90
17795;DHT22;9021;50.882;4.326;2022-12-07T00:03:41;7.80;99.90
17795;DHT22;9021;50.882;4.326;2022-12-07T00:06:09;7.70;99.90
17795;DHT22;9021;50.882;4.326;2022-12-07T00:08:35;7.70;99.90
17795;DHT22;9021;50.882;4.326;2022-12-07T00:11:05;7.50;99.90
17795;DHT22;9021;50.882;4.326;2022-12-07T00:13:32;7.60;99.90
17795;DHT22;9021;50.882;4.326;2022-12-07T00:16:06;7.50;99.90
17795;DHT22;9021;50.882;4.326;2022-12-07T00:18:32;7.50;99.90
17795;DHT22;9021;50.882;4.326;2022-12-07T00:21:27;7.50;99.90
17795;DHT22;9021;50.882;4.326;2022-12-07T00:23:52;7.50;99.90
17795;DHT22;9021;50.882;4.326;2022-12-07T00:26:43;7.50;99.90
17795;DHT22;9021;50.882;4.326;2022-12-07T00:29:16;7.40;99.90
17795;DHT22;9021;50.882;4.326;2022-12-07T00:31:42;7.40;99.90
17795;DHT22;9021;50.882;4.326;2022-12-07T00:34:12;7.30;99.90
17795;DHT22;9021;50.882;4.326;2022-12-07T00:36:38;7.30;99.90
17795;DHT22;9021;50.882;4.326;2022-12-07T00:39:04;7.30;99.90
17795;DHT22;9021;50.882;4.326;2022-12-07T00:41:30;7.30;99.90
17795;DHT22;9021;50.882;4.326;2022-12-07T00:43:56;7.20;99.90
17795;DHT22;9021;50.882;4.326;2022-12-07T00:46:22;7.20;99.90
17795;DHT22;9021;50.882;4.326;2022-12-07T00:48:49;7.60;99.90
17795;DHT22;9021;50.882;4.326;2022-12-07T00:51:17;7.00;99.90
17795;DHT22;9021;50.882;4.326;2022-12-07T00:53:43;7.10;99.90
17795;DHT22;9021;50.882;4.326;2022-12-07T00:56:15;7.00;99.90
17795;DHT22;9021;50.882;4.326;2022-12-07T00:58:41;7.00;99.90
17795;DHT22;9021;50.882;4.326;2022-12-07T01:01:08;6.90;99.90
17795;DHT22;9021;50.882;4.326;2022-12-07T01:03:34;6.90;99.90
17795;DHT22;9021;50.882;4.326;2022-12-07T01:06:00;6.80;99.90
17795;DHT22;9021;50.882;4.326;2022-12-07T01:08:27;6.80;99.90
17795;DHT22;9021;50.882;4.326;2022-12-07T01:11:05;6.70;99.90
17795;DHT22;9021;50.882;4.326;2022-12-07T01:13:31;6.70;99.90
17795;DHT22;9021;50.882;4.326;2022-12-07T01:15:58;6.80;99.90
17795;DHT22;9021;50.882;4.326;2022-12-07T01:18:26;6.70;99.90
17795;DHT22;9021;50.882;4.326;2022-12-07T01:21:23;6.60;99.90
17795;DHT22;9021;50.882;4.326;2022-12-07T01:23:47;6.50;99.90
17795;DHT22;9021;50.882;4.326;2022-12-07T01:26:16;6.50;99.90
17795;DHT22;9021;50.882;4.326;2022-12-07T01:28:42;6.50;99.90
17795;DHT22;9021;50.882;4.326;2022-12-07T01:31:15;6.50;99.90
17795;DHT22;9021;50.882;4.326;2022-12-07T01:33:43;6.50;99.90
17795;DHT22;9021;50.882;4.326;2022-12-07T01:38:43;6.40;99.90
17795;DHT22;9021;50.882;4.326;2022-12-07T01:41:09;6.40;99.90
17795;DHT22;9021;50.882;4.326;2022-12-07T01:43:35;6.50;99.90
17795;DHT22;9021;50.882;4.326;2022-12-07T01:46:02;6.40;99.90
17795;DHT22;9021;50.882;4.326;2022-12-07T01:48:35;6.50;99.90
17795;DHT22;9021;50.882;4.326;2022-12-07T01:51:08;6.60;99.90
17795;DHT22;9021;50.882;4.326;2022-12-07T01:53:36;6.60;99.90
17795;DHT22;9021;50.882;4.326;2022-12-07T01:56:04;6.50;99.90
17795;DHT22;9021;50.882;4.326;2022-12-07T01:58:30;6.50;99.90
17795;DHT22;9021;50.882;4.326;2022-12-07T02:00:56;6.50;99.90
17795;DHT22;9021;50.882;4.326;2022-12-07T02:03:39;6.60;99.90
17795;DHT22;9021;50.882;4.326;2022-12-07T02:06:05;6.60;99.90
17795;DHT22;9021;50.882;4.326;2022-12-07T02:08:33;6.60;99.90
17795;DHT22;9021;50.882;4.326;2022-12-07T02:11:00;6.80;99.90
17795;DHT22;9021;50.882;4.326;2022-12-07T02:13:29;6.90;99.90
17795;DHT22;9021;50.882;4.326;2022-12-07T02:16:18;6.90;99.90
17795;DHT22;9021;50.882;4.326;2022-12-07T02:19:03;6.90;99.90
17795;DHT22;9021;50.882;4.326;2022-12-07T02:32:59;7.10;99.90
17795;DHT22;9021;50.882;4.326;2022-12-07T02:35:33;7.10;99.90
17795;DHT22;9021;50.882;4.326;2022-12-07T02:38:20;7.20;99.90
17795;DHT22;9021;50.882;4.326;2022-12-07T02:41:04;7.10;99.90
17795;DHT22;9021;50.882;4.326;2022-12-07T02:44:00;7.20;99.90
17795;DHT22;9021;50.882;4.326;2022-12-07T02:46:33;7.20;99.90
17795;DHT22;9021;50.882;4.326;2022-12-07T02:49:01;7.10;99.90
17795;DHT22;9021;50.882;4.326;2022-12-07T02:51:30;7.00;99.90
17795;DHT22;9021;50.882;4.326;2022-12-07T02:53:56;6.90;99.90
17795;DHT22;9021;50.882;4.326;2022-12-07T03:04:33;6.70;99.90
17795;DHT22;9021;50.882;4.326;2022-12-07T03:07:16;6.60;99.90
17795;DHT22;9021;50.882;4.326;2022-12-07T03:12:19;6.50;99.90
17795;DHT22;9021;50.882;4.326;2022-12-07T03:14:53;6.40;99.90
17795;DHT22;9021;50.882;4.326;2022-12-07T03:17:24;6.30;99.90
17795;DHT22;9021;50.882;4.326;2022-12-07T03:19:55;6.30;99.90
17795;DHT22;9021;50.882;4.326;2022-12-07T03:22:23;6.30;99.90
17795;DHT22;9021;50.882;4.326;2022-12-07T03:24:53;6.30;99.90
17795;DHT22;9021;50.882;4.326;2022-12-07T03:27:22;6.20;99.90
17795;DHT22;9021;50.882;4.326;2022-12-07T03:29:56;6.20;99.90
17795;DHT22;9021;50.882;4.326;2022-12-07T03:32:36;6.20;99.90
17795;DHT22;9021;50.882;4.326;2022-12-07T03:35:27;6.20;99.90
17795;DHT22;9021;50.882;4.326;2022-12-07T03:38:10;6.30;99.90
17795;DHT22;9021;50.882;4.326;2022-12-07T03:43:23;6.40;99.90
17795;DHT22;9021;50.882;4.326;2022-12-07T03:48:57;6.40;99.90
17795;DHT22;9021;50.882;4.326;2022-12-07T03:51:31;6.30;99.90
17795;DHT22;9021;50.882;4.326;2022-12-07T03:54:05;6.20;99.90
17795;DHT22;9021;50.882;4.326;2022-12-07T03:56:33;6.20;99.90
17795;DHT22;9021;50.882;4.326;2022-12-07T03:58:59;6.10;99.90
17795;DHT22;9021;50.882;4.326;2022-12-07T04:01:25;6.00;99.90
17795;DHT22;9021;50.882;4.326;2022-12-07T04:03:50;6.10;99.90
17795;DHT22;9021;50.882;4.326;2022-12-07T04:06:16;6.10;99.90
17795;DHT22;9021;50.882;4.326;2022-12-07T04:08:42;5.90;99.90
17795;DHT22;9021;50.882;4.326;2022-12-07T04:11:08;5.90;99.90
17795;DHT22;9021;50.882;4.326;2022-12-07T04:13:33;5.90;99.90
17795;DHT22;9021;50.882;4.326;2022-12-07T04:16:19;5.90;99.90
17795;DHT22;9021;50.882;4.326;2022-12-07T04:18:45;5.90;99.90
17795;DHT22;9021;50.882;4.326;2022-12-07T04:21:10;5.80;99.90
17795;DHT22;9021;50.882;4.326;2022-12-07T04:23:36;5.80;99.90
17795;DHT22;9021;50.882;4.326;2022-12-07T04:26:01;5.80;99.90
17795;DHT22;9021;50.882;4.326;2022-12-07T04:28:27;5.70;99.90
17795;DHT22;9021;50.882;4.326;2022-12-07T04:30:53;5.70;99.90
17795;DHT22;9021;50.882;4.326;2022-12-07T04:33:18;5.70;99.90
17795;DHT22;9021;50.882;4.326;2022-12-07T04:35:44;5.70;99.90
17795;DHT22;9021;50.882;4.326;2022-12-07T04:38:09;5.80;99.90
17795;DHT22;9021;50.882;4.326;2022-12-07T04:40:35;5.80;99.90
17795;DHT22;9021;50.882;4.326;2022-12-07T04:43:00;5.80;99.90
17795;DHT22;9021;50.882;4.326;2022-12-07T04:45:26;5.70;99.90
17795;DHT22;9021;50.882;4.326;2022-12-07T04:47:52;6.00;99.90
17795;DHT22;9021;50.882;4.326;2022-12-07T04:50:17;6.10;99.90
17795;DHT22;9021;50.882;4.326;2022-12-07T04:52:43;6.10;99.90
17795;DHT22;9021;50.882;4.326;2022-12-07T04:55:09;6.10;99.90
17795;DHT22;9021;50.882;4.326;2022-12-07T04:57:34;6.20;99.90
17795;DHT22;9021;50.882;4.326;2022-12-07T05:00:00;6.20;99.90
17795;DHT22;9021;50.882;4.326;2022-12-07T05:02:25;6.10;99.90
17795;DHT22;9021;50.882;4.326;2022-12-07T05:04:51;6.10;99.90
17795;DHT22;9021;50.882;4.326;2022-12-07T05:07:17;6.00;99.90
17795;DHT22;9021;50.882;4.326;2022-12-07T05:09:42;5.90;99.90
17795;DHT22;9021;50.882;4.326;2022-12-07T05:12:08;5.80;99.90
17795;DHT22;9021;50.882;4.326;2022-12-07T05:14:33;5.80;99.90
17795;DHT22;9021;50.882;4.326;2022-12-07T05:16:59;5.90;99.90
17795;DHT22;9021;50.882;4.326;2022-12-07T05:19:25;5.80;99.90
17795;DHT22;9021;50.882;4.326;2022-12-07T05:21:51;5.90;99.90
17795;DHT22;9021;50.882;4.326;2022-12-07T05:24:17;6.00;99.90
17795;DHT22;9021;50.882;4.326;2022-12-07T05:26:43;6.00;99.90
17795;DHT22;9021;50.882;4.326;2022-12-07T05:29:16;6.00;99.90
17795;DHT22;9021;50.882;4.326;2022-12-07T05:31:43;5.90;99.90
17795;DHT22;9021;50.882;4.326;2022-12-07T05:34:09;5.90;99.90
17795;DHT22;9021;50.882;4.326;2022-12-07T05:36:35;6.10;99.90
17795;DHT22;9021;50.882;4.326;2022-12-07T05:39:01;6.10;99.90
17795;DHT22;9021;50.882;4.326;2022-12-07T05:41:27;6.20;99.90
17795;DHT22;9021;50.882;4.326;2022-12-07T05:44:12;6.10;99.90
17795;DHT22;9021;50.882;4.326;2022-12-07T05:46:38;6.10;99.90
17795;DHT22;9021;50.882;4.326;2022-12-07T05:49:03;6.00;99.90
17795;DHT22;9021;50.882;4.326;2022-12-07T05:51:29;5.90;99.90
17795;DHT22;9021;50.882;4.326;2022-12-07T05:53:55;6.00;99.90
17795;DHT22;9021;50.882;4.326;2022-12-07T05:56:20;6.10;99.90
17795;DHT22;9021;50.882;4.326;2022-12-07T05:58:46;6.10;99.90
17795;DHT22;9021;50.882;4.326;2022-12-07T06:01:30;6.10;99.90
17795;DHT22;9021;50.882;4.326;2022-12-07T06:03:56;6.20;99.90
17795;DHT22;9021;50.882;4.326;2022-12-07T06:06:21;6.10;99.90
17795;DHT22;9021;50.882;4.326;2022-12-07T06:08:47;6.00;99.90
17795;DHT22;9021;50.882;4.326;2022-12-07T06:11:13;6.00;99.90
17795;DHT22;9021;50.882;4.326;2022-12-07T06:13:57;6.00;99.90
17795;DHT22;9021;50.882;4.326;2022-12-07T06:16:22;6.00;99.90
17795;DHT22;9021;50.882;4.326;2022-12-07T06:18:48;6.00;99.90
17795;DHT22;9021;50.882;4.326;2022-12-07T06:21:13;6.00;99.90
17795;DHT22;9021;50.882;4.326;2022-12-07T06:23:40;6.00;99.90
17795;DHT22;9021;50.882;4.326;2022-12-07T06:26:05;6.00;99.90
17795;DHT22;9021;50.882;4.326;2022-12-07T06:28:31;6.00;99.90
17795;DHT22;9021;50.882;4.326;2022-12-07T06:31:00;6.20;99.90
17795;DHT22;9021;50.882;4.326;2022-12-07T06:33:27;6.30;99.90
17795;DHT22;9021;50.882;4.326;2022-12-07T06:35:53;6.40;99.90
17795;DHT22;9021;50.882;4.326;2022-12-07T06:38:19;6.50;99.90
17795;DHT22;9021;50.882;4.326;2022-12-07T06:40:44;6.50;99.90
17795;DHT22;9021;50.882;4.326;2022-12-07T06:43:10;6.50;99.90
17795;DHT22;9021;50.882;4.326;2022-12-07T06:45:35;6.30;99.90
17795;DHT22;9021;50.882;4.326;2022-12-07T06:48:01;6.30;99.90
17795;DHT22;9021;50.882;4.326;2022-12-07T06:50:27;6.30;99.90
17795;DHT22;9021;50.882;4.326;2022-12-07T06:52:52;6.30;99.90
17795;DHT22;9021;50.882;4.326;2022-12-07T06:55:18;6.40;99.90
17795;DHT22;9021;50.882;4.326;2022-12-07T06:57:44;6.50;99.90
17795;DHT22;9021;50.882;4.326;2022-12-07T07:00:10;6.50;99.90
17795;DHT22;9021;50.882;4.326;2022-12-07T07:02:35;6.50;99.90
17795;DHT22;9021;50.882;4.326;2022-12-07T07:05:01;6.40;99.90
17795;DHT22;9021;50.882;4.326;2022-12-07T07:07:27;6.40;99.90
17795;DHT22;9021;50.882;4.326;2022-12-07T07:09:53;6.40;99.90
17795;DHT22;9021;50.882;4.326;2022-12-07T07:12:18;6.40;99.90
17795;DHT22;9021;50.882;4.326;2022-12-07T07:14:44;6.30;99.90
17795;DHT22;9021;50.882;4.326;2022-12-07T07:17:09;6.30;99.90
17795;DHT22;9021;50.882;4.326;2022-12-07T07:19:35;6.20;99.90
17795;DHT22;9021;50.882;4.326;2022-12-07T07:22:02;6.40;99.90
17795;DHT22;9021;50.882;4.326;2022-12-07T07:24:28;6.50;99.90
17795;DHT22;9021;50.882;4.326;2022-12-07T07:26:54;6.40;99.90
17795;DHT22;9021;50.882;4.326;2022-12-07T07:29:19;6.30;99.90
17795;DHT22;9021;50.882;4.326;2022-12-07T07:31:45;6.40;99.90
17795;DHT22;9021;50.882;4.326;2022-12-07T07:34:11;6.50;99.90
17795;DHT22;9021;50.882;4.326;2022-12-07T07:36:36;6.50;99.90
17795;DHT22;9021;50.882;4.326;2022-12-07T07:39:02;6.40;99.90
17795;DHT22;9021;50.882;4.326;2022-12-07T07:41:28;6.50;99.90
17795;DHT22;9021;50.882;4.326;2022-12-07T07:43:54;6.50;99.90
17795;DHT22;9021;50.882;4.326;2022-12-07T07:46:19;6.50;99.90
17795;DHT22;9021;50.882;4.326;2022-12-07T07:48:45;6.50;99.90
17795;DHT22;9021;50.882;4.326;2022-12-07T07:51:10;6.50;99.90
17795;DHT22;9021;50.882;4.326;2022-12-07T07:53:36;6.40;99.90
17795;DHT22;9021;50.882;4.326;2022-12-07T07:56:02;6.40;99.90
17795;DHT22;9021;50.882;4.326;2022-12-07T07:58:28;6.40;99.90
17795;DHT22;9021;50.882;4.326;2022-12-07T08:00:53;6.40;99.90
17795;DHT22;9021;50.882;4.326;2022-12-07T08:03:19;6.30;99.90
17795;DHT22;9021;50.882;4.326;2022-12-07T08:05:45;6.30;99.90
17795;DHT22;9021;50.882;4.326;2022-12-07T08:08:11;6.30;99.90
17795;DHT22;9021;50.882;4.326;2022-12-07T08:10:36;6.20;99.90
17795;DHT22;9021;50.882;4.326;2022-12-07T08:13:03;6.20;99.90
17795;DHT22;9021;50.882;4.326;2022-12-07T08:15:41;6.30;99.90
17795;DHT22;9021;50.882;4.326;2022-12-07T08:18:08;6.30;99.90
17795;DHT22;9021;50.882;4.326;2022-12-07T08:20:34;6.30;99.90
17795;DHT22;9021;50.882;4.326;2022-12-07T08:23:01;6.30;99.90
17795;DHT22;9021;50.882;4.326;2022-12-07T08:25:27;6.40;99.90
17795;DHT22;9021;50.882;4.326;2022-12-07T08:27:53;6.30;99.90
17795;DHT22;9021;50.882;4.326;2022-12-07T08:30:19;6.30;99.90
17795;DHT22;9021;50.882;4.326;2022-12-07T08:32:46;6.40;99.90
17795;DHT22;9021;50.882;4.326;2022-12-07T08:35:12;6.50;99.90
17795;DHT22;9021;50.882;4.326;2022-12-07T08:37:38;6.60;99.90
17795;DHT22;9021;50.882;4.326;2022-12-07T08:40:05;6.60;99.90
17795;DHT22;9021;50.882;4.326;2022-12-07T08:42:31;6.70;99.90
17795;DHT22;9021;50.882;4.326;2022-12-07T08:45:11;6.80;99.90
17795;DHT22;9021;50.882;4.326;2022-12-07T08:47:41;6.90;99.90
17795;DHT22;9021;50.882;4.326;2022-12-07T08:50:08;7.10;99.90
17795;DHT22;9021;50.882;4.326;2022-12-07T08:52:35;7.30;99.90
17795;DHT22;9021;50.882;4.326;2022-12-07T08:55:02;7.60;99.90
17795;DHT22;9021;50.882;4.326;2022-12-07T08:57:29;7.70;99.90
17795;DHT22;9021;50.882;4.326;2022-12-07T08:59:55;7.80;99.90
17795;DHT22;9021;50.882;4.326;2022-12-07T09:02:20;7.90;99.90
17795;DHT22;9021;50.882;4.326;2022-12-07T09:04:46;7.90;99.90
17795;DHT22;9021;50.882;4.326;2022-12-07T09:07:12;8.00;99.90
17795;DHT22;9021;50.882;4.326;2022-12-07T09:09:38;8.00;99.90
17795;DHT22;9021;50.882;4.326;2022-12-07T09:12:03;7.90;99.90
17795;DHT22;9021;50.882;4.326;2022-12-07T09:14:29;8.00;99.90
17795;DHT22;9021;50.882;4.326;2022-12-07T09:16:56;8.00;99.90
17795;DHT22;9021;50.882;4.326;2022-12-07T09:19:29;8.20;99.90
17795;DHT22;9021;50.882;4.326;2022-12-07T09:21:55;8.20;99.90
17795;DHT22;9021;50.882;4.326;2022-12-07T09:24:20;8.30;99.90
17795;DHT22;9021;50.882;4.326;2022-12-07T09:26:46;8.20;99.90
17795;DHT22;9021;50.882;4.326;2022-12-07T09:29:11;8.30;99.90
17795;DHT22;9021;50.882;4.326;2022-12-07T09:31:37;8.30;99.90
17795;DHT22;9021;50.882;4.326;2022-12-07T09:34:03;8.30;99.90
17795;DHT22;9021;50.882;4.326;2022-12-07T09:36:30;8.50;99.90
17795;DHT22;9021;50.882;4.326;2022-12-07T09:38:57;8.60;99.90
17795;DHT22;9021;50.882;4.326;2022-12-07T09:41:24;8.60;99.90
17795;DHT22;9021;50.882;4.326;2022-12-07T09:43:51;8.50;99.90
17795;DHT22;9021;50.882;4.326;2022-12-07T09:46:19;8.50;99.90
17795;DHT22;9021;50.882;4.326;2022-12-07T09:48:46;8.50;99.90
17795;DHT22;9021;50.882;4.326;2022-12-07T09:51:16;8.50;99.90
17795;DHT22;9021;50.882;4.326;2022-12-07T09:53:43;8.60;99.90
17795;DHT22;9021;50.882;4.326;2022-12-07T09:56:17;8.70;99.90
17795;DHT22;9021;50.882;4.326;2022-12-07T09:58:44;8.80;99.90
17795;DHT22;9021;50.882;4.326;2022-12-07T10:01:20;8.80;99.90
17795;DHT22;9021;50.882;4.326;2022-12-07T10:04:26;9.00;99.90
17795;DHT22;9021;50.882;4.326;2022-12-07T10:06:47;9.00;99.90
17795;DHT22;9021;50.882;4.326;2022-12-07T10:09:16;9.00;99.90
17795;DHT22;9021;50.882;4.326;2022-12-07T10:12:02;9.00;99.90
17795;DHT22;9021;50.882;4.326;2022-12-07T10:14:30;9.00;99.90
17795;DHT22;9021;50.882;4.326;2022-12-07T10:16:56;8.90;99.90
17795;DHT22;9021;50.882;4.326;2022-12-07T10:19:26;8.80;99.90
17795;DHT22;9021;50.882;4.326;2022-12-07T10:22:11;8.90;99.90
17795;DHT22;9021;50.882;4.326;2022-12-07T10:24:38;8.90;99.90
17795;DHT22;9021;50.882;4.326;2022-12-07T10:27:21;9.00;99.90
17795;DHT22;9021;50.882;4.326;2022-12-07T10:29:51;9.10;99.90
17795;DHT22;9021;50.882;4.326;2022-12-07T10:34:43;9.50;99.90
17795;DHT22;9021;50.882;4.326;2022-12-07T10:37:19;9.70;99.90
17795;DHT22;9021;50.882;4.326;2022-12-07T10:39:53;9.70;99.90
17795;DHT22;9021;50.882;4.326;2022-12-07T10:42:29;9.70;99.90
17795;DHT22;9021;50.882;4.326;2022-12-07T10:45:14;9.70;99.90
17795;DHT22;9021;50.882;4.326;2022-12-07T10:50:41;9.70;99.90
17795;DHT22;9021;50.882;4.326;2022-12-07T10:53:21;9.60;99.90
17795;DHT22;9021;50.882;4.326;2022-12-07T11:10:30;10.00;99.90
17795;DHT22;9021;50.882;4.326;2022-12-07T11:13:39;9.90;99.90
17795;DHT22;9021;50.882;4.326;2022-12-07T11:18:44;9.80;99.90
17795;DHT22;9021;50.882;4.326;2022-12-07T11:24:35;9.70;99.90
17795;DHT22;9021;50.882;4.326;2022-12-07T11:27:12;9.60;99.90
17795;DHT22;9021;50.882;4.326;2022-12-07T11:35:45;12.10;99.90
17795;DHT22;9021;50.882;4.326;2022-12-07T11:38:18;13.80;99.90
17795;DHT22;9021;50.882;4.326;2022-12-07T11:40:49;15.30;99.20
17795;DHT22;9021;50.882;4.326;2022-12-07T11:43:24;16.40;96.90
17795;DHT22;9021;50.882;4.326;2022-12-07T11:46:04;17.10;95.50
17795;DHT22;9021;50.882;4.326;2022-12-07T11:48:38;18.00;93.60
17795;DHT22;9021;50.882;4.326;2022-12-07T11:51:09;18.40;93.60
17795;DHT22;9021;50.882;4.326;2022-12-07T11:53:39;18.80;92.80
17795;DHT22;9021;50.882;4.326;2022-12-07T11:58:54;19.70;90.90
17795;DHT22;9021;50.882;4.326;2022-12-07T12:01:45;19.70;90.30
17795;DHT22;9021;50.882;4.326;2022-12-07T12:07:01;17.90;91.20
17795;DHT22;9021;50.882;4.326;2022-12-07T12:09:30;16.60;92.10
17795;DHT22;9021;50.882;4.326;2022-12-07T12:12:12;15.30;93.50
17795;DHT22;9021;50.882;4.326;2022-12-07T12:15:19;14.40;94.50
17795;DHT22;9021;50.882;4.326;2022-12-07T12:21:01;13.00;96.60
17795;DHT22;9021;50.882;4.326;2022-12-07T12:23:43;12.60;97.20
17795;DHT22;9021;50.882;4.326;2022-12-07T12:26:24;12.30;97.50
17795;DHT22;9021;50.882;4.326;2022-12-07T12:28:56;12.80;98.20
17795;DHT22;9021;50.882;4.326;2022-12-07T12:34:04;15.10;94.60
17795;DHT22;9021;50.882;4.326;2022-12-07T12:39:19;16.80;92.90
17795;DHT22;9021;50.882;4.326;2022-12-07T12:54:19;13.70;95.70
17795;DHT22;9021;50.882;4.326;2022-12-07T12:57:16;13.50;96.00
17795;DHT22;9021;50.882;4.326;2022-12-07T13:02:25;13.00;97.10
17795;DHT22;9021;50.882;4.326;2022-12-07T13:04:59;12.80;97.30
17795;DHT22;9021;50.882;4.326;2022-12-07T13:10:42;12.40;97.90
17795;DHT22;9021;50.882;4.326;2022-12-07T13:21:39;12.60;98.00
17795;DHT22;9021;50.882;4.326;2022-12-07T13:29:13;12.00;98.50
17795;DHT22;9021;50.882;4.326;2022-12-07T13:31:43;12.00;98.60
17795;DHT22;9021;50.882;4.326;2022-12-07T13:37:26;11.60;98.90
17795;DHT22;9021;50.882;4.326;2022-12-07T13:39:56;11.40;99.10
17795;DHT22;9021;50.882;4.326;2022-12-07T13:42:33;11.30;99.50
17795;DHT22;9021;50.882;4.326;2022-12-07T13:45:13;11.20;99.80
17795;DHT22;9021;50.882;4.326;2022-12-07T13:47:48;11.10;99.90
17795;DHT22;9021;50.882;4.326;2022-12-07T13:52:50;10.90;99.90
17795;DHT22;9021;50.882;4.326;2022-12-07T13:55:16;10.80;99.90
17795;DHT22;9021;50.882;4.326;2022-12-07T13:57:44;10.70;99.90
17795;DHT22;9021;50.882;4.326;2022-12-07T14:00:23;10.50;99.90
17795;DHT22;9021;50.882;4.326;2022-12-07T14:03:00;10.40;99.90
17795;DHT22;9021;50.882;4.326;2022-12-07T14:05:33;10.20;99.90
17795;DHT22;9021;50.882;4.326;2022-12-07T14:08:05;10.10;99.90
17795;DHT22;9021;50.882;4.326;2022-12-07T14:10:35;10.00;99.90
17795;DHT22;9021;50.882;4.326;2022-12-07T14:13:03;10.00;99.90
17795;DHT22;9021;50.882;4.326;2022-12-07T14:15:50;9.90;99.90
17795;DHT22;9021;50.882;4.326;2022-12-07T14:18:30;9.80;99.90
17795;DHT22;9021;50.882;4.326;2022-12-07T14:21:06;9.80;99.90
17795;DHT22;9021;50.882;4.326;2022-12-07T14:23:32;9.70;99.90
17795;DHT22;9021;50.882;4.326;2022-12-07T14:26:20;9.60;99.90
17795;DHT22;9021;50.882;4.326;2022-12-07T14:28:46;9.70;99.90
17795;DHT22;9021;50.882;4.326;2022-12-07T14:31:17;9.50;99.90
17795;DHT22;9021;50.882;4.326;2022-12-07T14:33:45;9.40;99.90
17795;DHT22;9021;50.882;4.326;2022-12-07T14:36:12;9.40;99.90
17795;DHT22;9021;50.882;4.326;2022-12-07T14:38:38;9.40;99.90
17795;DHT22;9021;50.882;4.326;2022-12-07T14:41:10;9.40;99.90
17795;DHT22;9021;50.882;4.326;2022-12-07T14:43:57;9.30;99.90
17795;DHT22;9021;50.882;4.326;2022-12-07T14:46:22;9.30;99.90
17795;DHT22;9021;50.882;4.326;2022-12-07T14:48:48;9.30;99.90
17795;DHT22;9021;50.882;4.326;2022-12-07T14:51:13;9.20;99.90
17795;DHT22;9021;50.882;4.326;2022-12-07T14:53:46;9.20;99.90
17795;DHT22;9021;50.882;4.326;2022-12-07T14:56:13;9.20;99.90
17795;DHT22;9021;50.882;4.326;2022-12-07T14:58:40;9.20;99.90
17795;DHT22;9021;50.882;4.326;2022-12-07T15:01:06;9.20;99.90
17795;DHT22;9021;50.882;4.326;2022-12-07T15:03:32;9.00;99.90
17795;DHT22;9021;50.882;4.326;2022-12-07T15:06:00;9.10;99.90
17795;DHT22;9021;50.882;4.326;2022-12-07T15:08:25;9.10;99.90
17795;DHT22;9021;50.882;4.326;2022-12-07T15:10:51;9.00;99.90
17795;DHT22;9021;50.882;4.326;2022-12-07T15:13:17;9.00;99.90
17795;DHT22;9021;50.882;4.326;2022-12-07T15:16:02;9.10;99.90
17795;DHT22;9021;50.882;4.326;2022-12-07T15:18:28;9.00;99.90
17795;DHT22;9021;50.882;4.326;2022-12-07T15:20:53;9.00;99.90
17795;DHT22;9021;50.882;4.326;2022-12-07T15:23:19;9.10;99.90
17795;DHT22;9021;50.882;4.326;2022-12-07T15:25:46;9.10;99.90
17795;DHT22;9021;50.882;4.326;2022-12-07T15:28:14;9.10;99.90
17795;DHT22;9021;50.882;4.326;2022-12-07T15:30:42;9.00;99.90
17795;DHT22;9021;50.882;4.326;2022-12-07T15:33:11;8.90;99.90
17795;DHT22;9021;50.882;4.326;2022-12-07T15:35:41;9.00;99.90
17795;DHT22;9021;50.882;4.326;2022-12-07T15:38:07;9.00;99.90
17795;DHT22;9021;50.882;4.326;2022-12-07T15:40:34;8.90;99.90
17795;DHT22;9021;50.882;4.326;2022-12-07T15:43:00;9.00;99.90
17795;DHT22;9021;50.882;4.326;2022-12-07T15:45:26;8.90;99.90
17795;DHT22;9021;50.882;4.326;2022-12-07T15:47:51;8.80;99.90
17795;DHT22;9021;50.882;4.326;2022-12-07T15:50:17;8.70;99.90
17795;DHT22;9021;50.882;4.326;2022-12-07T15:52:43;8.70;99.90
17795;DHT22;9021;50.882;4.326;2022-12-07T15:55:10;8.70;99.90
17795;DHT22;9021;50.882;4.326;2022-12-07T15:57:37;8.70;99.90
17795;DHT22;9021;50.882;4.326;2022-12-07T16:00:08;8.70;99.90
17795;DHT22;9021;50.882;4.326;2022-12-07T16:02:37;8.80;99.90
17795;DHT22;9021;50.882;4.326;2022-12-07T16:05:03;8.70;99.90
17795;DHT22;9021;50.882;4.326;2022-12-07T16:07:28;8.80;99.90
17795;DHT22;9021;50.882;4.326;2022-12-07T16:09:54;8.70;99.90
17795;DHT22;9021;50.882;4.326;2022-12-07T16:12:19;8.70;99.90
17795;DHT22;9021;50.882;4.326;2022-12-07T16:14:45;8.70;99.90
17795;DHT22;9021;50.882;4.326;2022-12-07T16:17:11;8.70;99.90
17795;DHT22;9021;50.882;4.326;2022-12-07T16:19:37;8.80;99.90
17795;DHT22;9021;50.882;4.326;2022-12-07T16:22:03;8.80;99.90
17795;DHT22;9021;50.882;4.326;2022-12-07T16:24:30;8.70;99.90
17795;DHT22;9021;50.882;4.326;2022-12-07T16:26:56;8.60;99.90
17795;DHT22;9021;50.882;4.326;2022-12-07T16:29:22;8.60;99.90
17795;DHT22;9021;50.882;4.326;2022-12-07T16:31:49;8.40;99.90
17795;DHT22;9021;50.882;4.326;2022-12-07T16:34:14;8.50;99.90
17795;DHT22;9021;50.882;4.326;2022-12-07T16:36:41;8.40;99.90
17795;DHT22;9021;50.882;4.326;2022-12-07T16:39:06;8.30;99.90
17795;DHT22;9021;50.882;4.326;2022-12-07T16:41:32;8.30;99.90
17795;DHT22;9021;50.882;4.326;2022-12-07T16:44:03;8.30;99.90
17795;DHT22;9021;50.882;4.326;2022-12-07T16:46:31;8.40;99.90
17795;DHT22;9021;50.882;4.326;2022-12-07T16:48:56;8.30;99.90
17795;DHT22;9021;50.882;4.326;2022-12-07T16:51:22;8.30;99.90
17795;DHT22;9021;50.882;4.326;2022-12-07T16:53:48;8.30;99.90
17795;DHT22;9021;50.882;4.326;2022-12-07T16:56:15;8.30;99.90
17795;DHT22;9021;50.882;4.326;2022-12-07T16:58:42;8.40;99.90
17795;DHT22;9021;50.882;4.326;2022-12-07T17:01:14;8.50;99.90
17795;DHT22;9021;50.882;4.326;2022-12-07T17:03:40;8.50;99.90
17795;DHT22;9021;50.882;4.326;2022-12-07T17:06:20;8.50;99.90
17795;DHT22;9021;50.882;4.326;2022-12-07T17:08:47;8.60;99.90
17795;DHT22;9021;50.882;4.326;2022-12-07T17:11:21;8.60;99.90
17795;DHT22;9021;50.882;4.326;2022-12-07T17:13:48;8.60;99.90
17795;DHT22;9021;50.882;4.326;2022-12-07T17:16:33;8.50;99.90
17795;DHT22;9021;50.882;4.326;2022-12-07T17:19:03;8.50;99.90
17795;DHT22;9021;50.882;4.326;2022-12-07T17:21:29;8.40;99.90
17795;DHT22;9021;50.882;4.326;2022-12-07T17:23:55;8.50;99.90
17795;DHT22;9021;50.882;4.326;2022-12-07T17:26:24;8.60;99.90
17795;DHT22;9021;50.882;4.326;2022-12-07T17:28:50;8.50;99.90
17795;DHT22;9021;50.882;4.326;2022-12-07T17:31:19;8.50;99.90
17795;DHT22;9021;50.882;4.326;2022-12-07T17:33:45;8.50;99.90
17795;DHT22;9021;50.882;4.326;2022-12-07T17:38:41;8.50;99.90
17795;DHT22;9021;50.882;4.326;2022-12-07T17:41:16;8.50;99.90
17795;DHT22;9021;50.882;4.326;2022-12-07T17:44:02;8.30;99.90
17795;DHT22;9021;50.882;4.326;2022-12-07T17:46:29;8.30;99.90
17795;DHT22;9021;50.882;4.326;2022-12-07T17:48:56;8.20;99.90
17795;DHT22;9021;50.882;4.326;2022-12-07T17:51:21;8.30;99.90
17795;DHT22;9021;50.882;4.326;2022-12-07T17:54:06;8.40;99.90
17795;DHT22;9021;50.882;4.326;2022-12-07T17:56:35;8.40;99.90
17795;DHT22;9021;50.882;4.326;2022-12-07T17:59:01;8.40;99.90
17795;DHT22;9021;50.882;4.326;2022-12-07T18:01:27;8.40;99.90
17795;DHT22;9021;50.882;4.326;2022-12-07T18:03:53;8.40;99.90
17795;DHT22;9021;50.882;4.326;2022-12-07T18:06:18;8.40;99.90
17795;DHT22;9021;50.882;4.326;2022-12-07T18:08:44;8.50;99.90
17795;DHT22;9021;50.882;4.326;2022-12-07T18:11:10;8.40;99.90